Time;durP1;ratioP1;P1;durP2;ratioP2;P2;SDS_P1;SDS_P2;PMS_P1;PMS_P2;Temp;Humidity;BMP_temperature;BMP_pressure;BME280_temperature;BME280_humidity;BME280_pressure;Samples;Min_cycle;Max_cycle;Signal;HPM_P1;HPM_P2
2021/01/29 00:00:38;;;;;;;25.95;13.13;;;;;;;;;;5037912;28;20026;-83
2021/01/29 00:03:06;;;;;;;28.13;14.32;;;;;;;;;;5038102;28;20025;-84
2021/01/29 00:05:39;;;;;;;26.08;13.65;;;;;;;;;;5037925;28;20100;-83
2021/01/29 00:08:06;;;;;;;24.48;13.68;;;;;;;;;;5019884;28;20037;-83
2021/01/29 00:10:32;;;;;;;27.63;15.02;;;;;;;;;;5034002;28;20056;-83
2021/01/29 00:12:58;;;;;;;30.10;15.35;;;;;;;;;;5018001;28;20063;-83
2021/01/29 00:15:24;;;;;;;29.38;16.15;;;;;;;;;;5000472;28;20038;-83
2021/01/29 00:17:50;;;;;;;25.95;15.32;;;;;;;;;;5017858;28;20495;-82
2021/01/29 00:20:19;;;;;;;33.88;15.82;;;;;;;;;;5017322;28;20075;-83
2021/01/29 00:22:46;;;;;;;30.35;16.45;;;;;;;;;;5017629;28;20112;-84
2021/01/29 00:25:15;;;;;;;31.25;16.45;;;;;;;;;;5017561;28;20413;-84
2021/01/29 00:27:42;;;;;;;31.95;17.80;;;;;;;;;;5017967;28;20034;-84
2021/01/29 00:30:08;;;;;;;32.58;16.95;;;;;;;;;;5017665;28;20436;-84
2021/01/29 00:32:34;;;;;;;37.47;20.00;;;;;;;;;;5017739;28;20034;-83
2021/01/29 00:35:00;;;;;;;35.35;18.27;;;;;;;;;;5017693;28;20034;-84
2021/01/29 00:37:26;;;;;;;34.67;18.85;;;;;;;;;;5017805;28;20416;-84
2021/01/29 00:39:53;;;;;;;33.53;17.70;;;;;;;;;;5017420;28;20352;-83
2021/01/29 00:42:19;;;;;;;31.70;18.10;;;;;;;;;;5017704;28;20080;-83
2021/01/29 00:44:45;;;;;;;28.73;16.63;;;;;;;;;;5017511;28;20068;-84
2021/01/29 00:47:11;;;;;;;30.33;17.52;;;;;;;;;;5017443;28;20105;-84
2021/01/29 00:49:37;;;;;;;34.42;18.10;;;;;;;;;;5000352;28;20026;-83
2021/01/29 00:52:03;;;;;;;33.63;17.92;;;;;;;;;;4999716;28;20034;-83
2021/01/29 00:54:29;;;;;;;36.10;17.75;;;;;;;;;;5017494;28;20022;-83
2021/01/29 00:56:55;;;;;;;35.80;18.80;;;;;;;;;;5017271;28;20140;-83
2021/01/29 00:59:21;;;;;;;30.85;17.95;;;;;;;;;;5017256;28;20035;-83
2021/01/29 01:01:47;;;;;;;33.63;18.00;;;;;;;;;;5017304;28;20038;-83
2021/01/29 01:04:14;;;;;;;33.15;18.60;;;;;;;;;;5016990;28;20105;-83
2021/01/29 01:06:40;;;;;;;33.10;17.70;;;;;;;;;;5017058;28;20033;-83
2021/01/29 01:09:06;;;;;;;33.15;18.70;;;;;;;;;;5017262;28;20036;-81
2021/01/29 01:11:32;;;;;;;35.20;18.42;;;;;;;;;;5016748;28;20037;-80
2021/01/29 01:14:00;;;;;;;33.08;18.52;;;;;;;;;;5017290;28;20030;-84
2021/01/29 01:16:26;;;;;;;27.77;15.88;;;;;;;;;;5017176;28;20033;-82
2021/01/29 01:18:52;;;;;;;29.42;16.85;;;;;;;;;;5016805;28;20026;-84
2021/01/29 01:21:18;;;;;;;27.98;16.42;;;;;;;;;;5017200;28;20405;-84
2021/01/29 01:23:44;;;;;;;27.42;15.52;;;;;;;;;;4999368;28;20034;-83
2021/01/29 01:26:10;;;;;;;24.38;15.02;;;;;;;;;;5016987;28;20026;-83
2021/01/29 01:28:36;;;;;;;25.20;13.57;;;;;;;;;;5016849;28;20038;-83
2021/01/29 01:31:22;;;;;;;25.08;14.95;;;;;;;;;;5016899;28;20054;-83
2021/01/29 01:33:48;;;;;;;21.15;13.48;;;;;;;;;;5020032;28;20026;-83
2021/01/29 01:36:14;;;;;;;22.85;13.20;;;;;;;;;;5020520;28;20034;-82
2021/01/29 01:38:41;;;;;;;22.13;13.68;;;;;;;;;;5020672;28;20499;-83
2021/01/29 01:41:07;;;;;;;24.85;13.93;;;;;;;;;;5003272;28;20113;-82
2021/01/29 01:43:33;;;;;;;21.30;13.10;;;;;;;;;;5020712;28;20041;-83
2021/01/29 01:46:01;;;;;;;21.70;13.02;;;;;;;;;;5020761;28;20030;-82
2021/01/29 01:48:29;;;;;;;24.67;13.75;;;;;;;;;;5020363;28;20025;-83
2021/01/29 01:50:56;;;;;;;27.13;13.95;;;;;;;;;;5020556;28;20052;-82
2021/01/29 01:53:27;;;;;;;22.98;13.57;;;;;;;;;;5020221;28;20064;-81
2021/01/29 01:55:59;;;;;;;23.35;13.65;;;;;;;;;;5020102;28;20029;-82
2021/01/29 01:58:25;;;;;;;21.33;13.30;;;;;;;;;;5020099;28;20599;-82
2021/01/29 02:00:51;;;;;;;24.98;14.45;;;;;;;;;;5020148;28;20034;-82
2021/01/29 02:03:22;;;;;;;25.83;13.73;;;;;;;;;;5020015;28;20026;-81
2021/01/29 02:05:49;;;;;;;26.13;13.68;;;;;;;;;;5020401;28;20022;-82
2021/01/29 02:08:16;;;;;;;23.60;13.18;;;;;;;;;;5020333;28;20088;-82
2021/01/29 02:10:42;;;;;;;26.02;14.55;;;;;;;;;;5020112;28;20308;-82
2021/01/29 02:13:09;;;;;;;34.13;16.15;;;;;;;;;;5020098;28;20072;-83
2021/01/29 02:15:37;;;;;;;47.17;20.58;;;;;;;;;;5002654;28;20030;-84
2021/01/29 02:18:10;;;;;;;49.45;21.08;;;;;;;;;;5020008;28;20400;-83
2021/01/29 02:20:54;;;;;;;47.50;21.55;;;;;;;;;;5020206;28;20105;-83
2021/01/29 02:23:23;;;;;;;55.05;20.42;;;;;;;;;;5002516;28;20036;-83
2021/01/29 02:26:19;;;;;;;46.13;18.25;;;;;;;;;;5019876;28;20022;-83
2021/01/29 02:29:04;;;;;;;36.45;15.98;;;;;;;;;;5019653;28;20034;-83
2021/01/29 02:31:48;;;;;;;30.58;15.63;;;;;;;;;;5019392;28;20471;-83
2021/01/29 02:34:29;;;;;;;29.52;14.73;;;;;;;;;;5019785;28;20029;-83
2021/01/29 02:36:58;;;;;;;24.02;13.90;;;;;;;;;;5019244;28;20466;-82
2021/01/29 02:39:45;;;;;;;24.55;13.38;;;;;;;;;;5019639;28;20309;-82
2021/01/29 02:42:28;;;;;;;21.77;12.77;;;;;;;;;;5001825;28;20084;-82
2021/01/29 02:44:59;;;;;;;21.10;13.15;;;;;;;;;;5018380;28;20018;-82
2021/01/29 02:47:27;;;;;;;19.60;12.63;;;;;;;;;;5019071;28;20028;-81
2021/01/29 02:50:09;;;;;;;21.65;13.30;;;;;;;;;;5019252;28;20064;-83
2021/01/29 02:52:53;;;;;;;29.88;14.25;;;;;;;;;;5019263;28;20033;-82
2021/01/29 02:55:19;;;;;;;23.73;14.55;;;;;;;;;;5019112;28;20037;-82
2021/01/29 02:57:45;;;;;;;20.55;12.05;;;;;;;;;;5018995;28;20032;-82
2021/01/29 03:00:36;;;;;;;17.52;11.50;;;;;;;;;;5019130;28;20108;-83
2021/01/29 03:03:16;;;;;;;18.98;11.30;;;;;;;;;;5019099;28;20033;-83
2021/01/29 03:05:49;;;;;;;19.10;11.35;;;;;;;;;;5001206;28;20057;-82
2021/01/29 03:08:24;;;;;;;20.08;11.10;;;;;;;;;;5001619;28;20030;-82
2021/01/29 03:10:59;;;;;;;20.98;11.48;;;;;;;;;;5018971;28;20369;-83
2021/01/29 03:13:31;;;;;;;17.30;10.38;;;;;;;;;;5001667;28;20029;-84
2021/01/29 03:16:00;;;;;;;19.77;11.32;;;;;;;;;;5019097;28;20033;-84
2021/01/29 03:18:53;;;;;;;20.88;12.23;;;;;;;;;;5019153;28;20069;-83
2021/01/29 03:21:22;;;;;;;23.27;11.43;;;;;;;;;;4920642;29;20040;-83
2021/01/29 03:23:54;;;;;;;21.35;11.43;;;;;;;;;;4920564;29;20391;-83
2021/01/29 03:26:23;;;;;;;18.77;11.15;;;;;;;;;;4920468;29;20128;-83
2021/01/29 03:28:50;;;;;;;17.05;10.60;;;;;;;;;;4920309;29;20349;-83
2021/01/29 03:31:27;;;;;;;20.40;10.98;;;;;;;;;;4919868;29;20105;-83
2021/01/29 03:34:01;;;;;;;17.67;11.18;;;;;;;;;;4920259;29;20067;-83
2021/01/29 03:36:30;;;;;;;17.77;11.02;;;;;;;;;;4920084;29;20087;-82
2021/01/29 03:39:07;;;;;;;19.27;11.15;;;;;;;;;;4920101;29;20371;-82
2021/01/29 03:41:36;;;;;;;20.42;11.00;;;;;;;;;;4920109;29;20107;-83
2021/01/29 03:44:20;;;;;;;19.80;11.50;;;;;;;;;;4919798;29;20051;-82
2021/01/29 03:47:10;;;;;;;19.38;11.45;;;;;;;;;;4920036;29;20024;-82
2021/01/29 03:49:50;;;;;;;18.25;11.40;;;;;;;;;;4919775;29;20338;-83
2021/01/29 03:52:24;;;;;;;18.90;12.15;;;;;;;;;;4919947;29;20502;-83
2021/01/29 03:54:56;;;;;;;18.00;10.90;;;;;;;;;;4919812;29;20083;-81
2021/01/29 03:57:31;;;;;;;18.92;11.20;;;;;;;;;;4924227;28;20029;-82
2021/01/29 04:00:10;;;;;;;18.90;11.45;;;;;;;;;;5017933;28;20030;-83
2021/01/29 04:02:51;;;;;;;16.30;10.60;;;;;;;;;;5018154;28;20076;-83
2021/01/29 04:05:23;;;;;;;18.27;11.25;;;;;;;;;;5017945;28;20754;-83
2021/01/29 04:07:54;;;;;;;18.30;10.83;;;;;;;;;;5000692;28;20316;-83
2021/01/29 04:10:23;;;;;;;18.65;11.45;;;;;;;;;;5001136;28;20064;-83
2021/01/29 04:13:04;;;;;;;17.10;10.20;;;;;;;;;;5017786;28;20026;-83
2021/01/29 04:15:30;;;;;;;20.42;11.25;;;;;;;;;;5017777;28;20058;-83
2021/01/29 04:17:59;;;;;;;16.10;10.85;;;;;;;;;;5017937;28;20064;-83
2021/01/29 04:20:41;;;;;;;17.45;10.80;;;;;;;;;;5017739;28;20054;-83
2021/01/29 04:23:12;;;;;;;18.00;11.60;;;;;;;;;;5000533;28;20301;-83
2021/01/29 04:25:42;;;;;;;17.45;10.85;;;;;;;;;;5017726;28;20423;-83
2021/01/29 04:28:11;;;;;;;19.95;12.35;;;;;;;;;;5017973;28;20056;-83
2021/01/29 04:30:38;;;;;;;18.55;11.88;;;;;;;;;;5017517;28;20138;-81
2021/01/29 04:33:08;;;;;;;20.42;11.38;;;;;;;;;;5017503;28;20034;-81
2021/01/29 04:35:36;;;;;;;28.98;13.82;;;;;;;;;;4999896;28;20057;-81
2021/01/29 04:38:09;;;;;;;36.60;17.00;;;;;;;;;;5017268;28;20313;-81
2021/01/29 04:40:43;;;;;;;19.92;11.95;;;;;;;;;;5017413;28;20032;-82
2021/01/29 04:43:25;;;;;;;17.13;11.10;;;;;;;;;;4999947;28;20105;-82
2021/01/29 04:45:57;;;;;;;18.53;10.37;;;;;;;;;;5017268;28;20029;-82
2021/01/29 04:48:27;;;;;;;23.08;12.40;;;;;;;;;;5017720;28;20042;-82
2021/01/29 04:51:05;;;;;;;23.48;13.15;;;;;;;;;;4999916;28;20061;-82
2021/01/29 04:54:01;;;;;;;28.90;15.80;;;;;;;;;;5017285;28;20033;-82
2021/01/29 04:56:35;;;;;;;26.77;15.98;;;;;;;;;;4918846;29;20083;-82
2021/01/29 04:59:20;;;;;;;22.35;14.18;;;;;;;;;;4918980;29;20032;-82
2021/01/29 05:01:59;;;;;;;17.17;10.73;;;;;;;;;;4918788;29;20316;-82
2021/01/29 05:04:37;;;;;;;21.83;12.55;;;;;;;;;;4918982;29;20120;-82
2021/01/29 05:07:15;;;;;;;19.02;12.20;;;;;;;;;;4919138;29;20036;-83
2021/01/29 05:09:46;;;;;;;20.83;13.32;;;;;;;;;;4922804;29;20085;-82
2021/01/29 05:12:18;;;;;;;27.90;16.10;;;;;;;;;;4922711;29;20039;-82
2021/01/29 05:14:56;;;;;;;21.63;13.52;;;;;;;;;;4922556;29;20159;-82
2021/01/29 05:17:31;;;;;;;22.55;13.60;;;;;;;;;;4922428;29;20038;-83
2021/01/29 05:20:16;;;;;;;22.33;13.25;;;;;;;;;;4922339;29;20040;-80
2021/01/29 05:22:51;;;;;;;19.73;12.65;;;;;;;;;;4922446;29;20028;-82
2021/01/29 05:25:33;;;;;;;22.92;11.60;;;;;;;;;;4922354;28;20024;-81
2021/01/29 05:28:19;;;;;;;19.58;11.52;;;;;;;;;;4922250;29;20024;-82
2021/01/29 05:30:51;;;;;;;17.20;10.70;;;;;;;;;;4865867;29;20194;-83
2021/01/29 05:33:30;;;;;;;19.85;12.05;;;;;;;;;;4931780;29;20505;-83
2021/01/29 05:36:02;;;;;;;17.35;11.40;;;;;;;;;;4960396;29;20043;-83
2021/01/29 05:38:47;;;;;;;19.98;10.07;;;;;;;;;;4960536;29;20043;-83
2021/01/29 05:41:25;;;;;;;18.77;10.82;;;;;;;;;;4960462;29;20035;-81
2021/01/29 05:44:00;;;;;;;17.88;11.13;;;;;;;;;;4960337;29;20031;-87
2021/01/29 05:46:26;;;;;;;15.77;9.68;;;;;;;;;;4961032;29;20066;-88
2021/01/29 05:49:11;;;;;;;21.30;11.10;;;;;;;;;;4944349;29;20035;-90
2021/01/29 05:51:51;;;;;;;20.40;13.13;;;;;;;;;;4960730;29;20078;-91
2021/01/29 05:54:23;;;;;;;20.75;12.82;;;;;;;;;;4960743;28;20038;-88
2021/01/29 05:56:49;;;;;;;21.83;13.95;;;;;;;;;;4944641;29;20118;-89
2021/01/29 05:59:21;;;;;;;21.60;12.35;;;;;;;;;;4960678;29;20028;-89
2021/01/29 06:02:00;;;;;;;17.63;11.77;;;;;;;;;;4960806;29;20052;-88
2021/01/29 06:04:29;;;;;;;28.33;16.88;;;;;;;;;;4960805;29;20024;-87
2021/01/29 06:07:14;;;;;;;24.83;14.30;;;;;;;;;;4952521;28;20058;-88
2021/01/29 06:09:40;;;;;;;130.63;56.10;;;;;;;;;;5020827;28;20033;-88
2021/01/29 06:12:32;;;;;;;72.50;34.65;;;;;;;;;;5020915;28;20029;-88
2021/01/29 06:15:22;;;;;;;30.05;19.25;;;;;;;;;;4922342;29;20087;-89
2021/01/29 06:18:06;;;;;;;35.28;19.48;;;;;;;;;;4905654;29;20032;-88
2021/01/29 06:20:52;;;;;;;32.20;18.48;;;;;;;;;;4905481;29;20346;-88
2021/01/29 06:23:24;;;;;;;28.80;17.70;;;;;;;;;;4865853;29;20123;-88
2021/01/29 06:26:09;;;;;;;27.33;18.20;;;;;;;;;;4865876;29;20036;-87
2021/01/29 06:28:47;;;;;;;25.70;16.77;;;;;;;;;;4865616;29;20041;-88
2021/01/29 06:31:32;;;;;;;43.03;20.30;;;;;;;;;;4865590;29;20064;-88
2021/01/29 06:34:05;;;;;;;24.90;13.80;;;;;;;;;;4865687;29;20048;-88
2021/01/29 06:36:36;;;;;;;18.48;11.00;;;;;;;;;;4865560;29;20037;-87
2021/01/29 06:39:19;;;;;;;29.48;15.57;;;;;;;;;;4865610;29;20041;-88
2021/01/29 06:41:45;;;;;;;;;;;;;;;;;;4866033;29;20072;-88
2021/01/29 06:44:26;;;;;;;36.42;21.60;;;;;;;;;;4865693;29;19912;-88
2021/01/29 06:47:23;;;;;;;39.53;22.95;;;;;;;;;;4865562;29;20033;-88
2021/01/29 06:50:07;;;;;;;28.98;16.52;;;;;;;;;;4865600;29;20078;-88
2021/01/29 06:53:05;;;;;;;31.60;15.18;;;;;;;;;;4943646;29;20102;-88
2021/01/29 06:55:34;;;;;;;34.78;15.25;;;;;;;;;;4921455;29;20443;-88
2021/01/29 06:58:04;;;;;;;38.35;16.45;;;;;;;;;;4921166;29;20047;-88
2021/01/29 07:00:30;;;;;;;27.85;16.58;;;;;;;;;;4942292;29;20043;-87
2021/01/29 07:03:12;;;;;;;28.67;18.48;;;;;;;;;;4959469;29;20027;-87
2021/01/29 07:05:44;;;;;;;37.97;23.60;;;;;;;;;;4959443;29;20043;-88
2021/01/29 07:08:22;;;;;;;70.43;48.80;;;;;;;;;;4959426;29;20054;-84
2021/01/29 07:10:54;;;;;;;71.70;44.35;;;;;;;;;;4958976;29;20031;-87
2021/01/29 07:13:35;;;;;;;90.43;55.13;;;;;;;;;;4959496;29;20350;-88
2021/01/29 07:16:17;;;;;;;89.40;57.28;;;;;;;;;;4959250;29;20035;-88
2021/01/29 07:19:02;;;;;;;99.70;63.83;;;;;;;;;;4959383;29;20050;-87
2021/01/29 07:21:32;;;;;;;42.13;25.27;;;;;;;;;;4958940;29;20384;-88
2021/01/29 07:24:25;;;;;;;44.55;28.67;;;;;;;;;;4958955;28;20043;-88
2021/01/29 07:27:03;;;;;;;34.80;22.48;;;;;;;;;;4920809;29;20427;-89
2021/01/29 07:29:51;;;;;;;24.88;14.60;;;;;;;;;;4920879;29;20036;-89
2021/01/29 07:32:17;;;;;;;23.75;14.68;;;;;;;;;;4958897;29;20051;-88
2021/01/29 07:35:01;;;;;;;29.92;18.13;;;;;;;;;;4942506;29;20417;-88
2021/01/29 07:37:36;;;;;;;21.50;12.95;;;;;;;;;;4959009;29;20422;-88
2021/01/29 07:40:08;;;;;;;20.08;11.40;;;;;;;;;;4961718;28;20030;-87
2021/01/29 07:42:43;;;;;;;26.50;14.25;;;;;;;;;;4958937;29;20035;-88
2021/01/29 07:45:24;;;;;;;25.75;14.23;;;;;;;;;;4958757;29;20035;-88
2021/01/29 07:54:16;;;;;;;42.05;19.85;;;;;;;;;;4958763;29;20034;-87
2021/01/29 07:56:42;;;;;;;40.72;17.83;;;;;;;;;;4958604;29;20046;-87
2021/01/29 07:59:26;;;;;;;24.50;13.73;;;;;;;;;;4942171;29;20349;-88
2021/01/29 08:02:04;;;;;;;50.67;20.83;;;;;;;;;;4958513;29;20069;-87
2021/01/29 08:10:44;;;;;;;29.63;17.63;;;;;;;;;;5018595;28;20324;-88
2021/01/29 08:13:13;;;;;;;17.77;11.68;;;;;;;;;;5018372;28;20215;-85
2021/01/29 08:15:57;;;;;;;18.92;11.43;;;;;;;;;;5000634;28;20301;-87
2021/01/29 08:24:40;;;;;;;17.38;9.30;;;;;;;;;;5018386;28;20032;-89
2021/01/29 08:27:24;;;;;;;13.10;8.25;;;;;;;;;;5018345;28;20030;-87
2021/01/29 08:30:00;;;;;;;13.23;8.40;;;;;;;;;;5017779;28;20054;-87
2021/01/29 08:35:44;;;;;;;24.35;16.30;;;;;;;;;;5018265;28;20028;-88
2021/01/29 08:38:14;;;;;;;24.33;15.52;;;;;;;;;;5017866;28;20038;-87
2021/01/29 08:40:58;;;;;;;22.13;14.90;;;;;;;;;;5017995;28;20030;-86
2021/01/29 08:43:35;;;;;;;22.92;14.90;;;;;;;;;;5007476;28;20037;-88
2021/01/29 08:46:19;;;;;;;23.55;16.48;;;;;;;;;;5017882;28;20018;-87
2021/01/29 08:49:00;;;;;;;33.72;17.25;;;;;;;;;;5018118;28;20029;-87
2021/01/29 08:51:38;;;;;;;44.00;20.17;;;;;;;;;;5000511;28;20028;-87
2021/01/29 08:54:10;;;;;;;39.03;19.67;;;;;;;;;;5000434;28;20471;-86
2021/01/29 08:56:36;;;;;;;32.13;17.83;;;;;;;;;;5017589;28;20438;-87
2021/01/29 08:59:04;;;;;;;39.05;20.58;;;;;;;;;;5017781;28;20026;-86
2021/01/29 09:01:43;;;;;;;43.03;23.77;;;;;;;;;;5000108;28;20057;-87
2021/01/29 09:04:28;;;;;;;37.22;21.23;;;;;;;;;;5017927;28;20026;-86
2021/01/29 09:06:55;;;;;;;69.95;38.25;;;;;;;;;;5000377;28;20026;-87
2021/01/29 09:09:25;;;;;;;143.93;62.17;;;;;;;;;;5029456;28;20037;-87
2021/01/29 09:11:52;;;;;;;55.00;29.88;;;;;;;;;;5037589;28;20091;-87
2021/01/29 09:14:39;;;;;;;59.90;31.63;;;;;;;;;;5019830;28;20065;-87
2021/01/29 09:17:15;;;;;;;44.90;26.45;;;;;;;;;;5037083;28;20024;-86
2021/01/29 09:25:59;;;;;;;70.90;32.78;;;;;;;;;;5037315;28;20319;-86
2021/01/29 09:28:32;;;;;;;237.20;80.57;;;;;;;;;;5037022;28;20034;-86
2021/01/29 09:31:05;;;;;;;112.72;42.10;;;;;;;;;;5019478;28;20091;-87
2021/01/29 09:39:46;;;;;;;91.90;33.88;;;;;;;;;;5037219;28;20074;-87
2021/01/29 09:42:21;;;;;;;42.70;22.73;;;;;;;;;;5019367;28;20128;-87
2021/01/29 09:44:52;;;;;;;33.55;19.05;;;;;;;;;;5037142;28;20029;-87
2021/01/29 09:47:23;;;;;;;45.28;24.10;;;;;;;;;;5019699;28;20116;-87
2021/01/29 09:49:50;;;;;;;70.78;30.38;;;;;;;;;;5037331;28;20080;-86
2021/01/29 09:52:20;;;;;;;53.95;25.15;;;;;;;;;;5036806;28;20029;-86
2021/01/29 09:54:49;;;;;;;32.17;17.38;;;;;;;;;;5039972;28;20025;-86
2021/01/29 09:57:33;;;;;;;53.90;24.90;;;;;;;;;;5040739;28;20057;-87
2021/01/29 10:00:03;;;;;;;63.80;27.98;;;;;;;;;;5040297;28;20080;-88
2021/01/29 10:02:33;;;;;;;83.10;45.00;;;;;;;;;;5021649;28;20081;-87
2021/01/29 10:08:11;;;;;;;157.90;85.30;;;;;;;;;;5040342;28;20028;-84
2021/01/29 10:10:48;;;;;;;84.07;50.55;;;;;;;;;;5040058;28;20022;-82
2021/01/29 10:13:22;;;;;;;32.00;17.23;;;;;;;;;;5039793;28;20017;-86
2021/01/29 10:15:56;;;;;;;45.17;21.90;;;;;;;;;;5040438;28;20024;-87
2021/01/29 10:18:24;;;;;;;29.98;16.08;;;;;;;;;;5040281;28;20025;-85
2021/01/29 10:20:50;;;;;;;23.73;13.75;;;;;;;;;;5039921;28;20084;-86
2021/01/29 10:23:26;;;;;;;48.22;25.17;;;;;;;;;;5022664;28;20029;-86
2021/01/29 10:26:11;;;;;;;772.33;378.70;;;;;;;;;;5039922;28;20024;-86
2021/01/29 10:28:37;;;;;;;919.55;411.70;;;;;;;;;;5040174;28;20053;-86
2021/01/29 10:31:05;;;;;;;137.75;53.72;;;;;;;;;;5022126;28;20424;-86
2021/01/29 10:33:33;;;;;;;290.95;119.05;;;;;;;;;;5040019;28;20060;-84
2021/01/29 10:36:05;;;;;;;943.03;461.10;;;;;;;;;;5039607;28;20029;-85
2021/01/29 10:38:50;;;;;;;192.02;86.22;;;;;;;;;;5039858;28;20037;-85
2021/01/29 10:41:22;;;;;;;462.55;202.57;;;;;;;;;;5021727;28;20121;-86
2021/01/29 10:43:48;;;;;;;;;;;;;;;;;;5040285;28;20083;-85
2021/01/29 10:46:20;;;;;;;688.90;328.30;;;;;;;;;;5039556;28;20246;-85
2021/01/29 10:51:55;;;;;;;1367.43;673.13;;;;;;;;;;5039632;28;20079;-84
2021/01/29 10:54:23;;;;;;;1097.53;573.78;;;;;;;;;;5022029;28;20095;-86
2021/01/29 10:57:07;;;;;;;1999.90;949.67;;;;;;;;;;5039267;28;20044;-85
2021/01/29 10:59:36;;;;;;;488.05;263.80;;;;;;;;;;5021248;28;20041;-85
2021/01/29 11:02:04;;;;;;;523.80;297.63;;;;;;;;;;5039113;28;20025;-81
2021/01/29 11:07:36;;;;;;;554.10;330.73;;;;;;;;;;5038956;28;20446;-81
2021/01/29 11:10:23;;;;;;;156.65;86.18;;;;;;;;;;5038694;28;20033;-80
2021/01/29 11:13:15;;;;;;;172.30;92.22;;;;;;;;;;5038184;28;20139;-81
2021/01/29 11:15:48;;;;;;;66.70;36.10;;;;;;;;;;5034003;28;20044;-81
2021/01/29 11:18:17;;;;;;;83.47;45.90;;;;;;;;;;5010957;28;20420;-80
2021/01/29 11:20:43;;;;;;;113.38;59.78;;;;;;;;;;5018591;28;20315;-80
2021/01/29 11:23:12;;;;;;;168.73;90.22;;;;;;;;;;5018802;28;20029;-81
2021/01/29 11:25:42;;;;;;;92.00;47.40;;;;;;;;;;5018611;28;20018;-81
2021/01/29 11:28:24;;;;;;;64.45;34.15;;;;;;;;;;5001136;28;20315;-80
2021/01/29 11:30:57;;;;;;;29.90;17.50;;;;;;;;;;5018329;28;20053;-80
2021/01/29 11:33:27;;;;;;;24.05;13.07;;;;;;;;;;5000808;28;20026;-81
2021/01/29 11:35:59;;;;;;;136.88;71.90;;;;;;;;;;5001191;28;20108;-85
2021/01/29 11:38:34;;;;;;;109.13;56.38;;;;;;;;;;5018971;28;20057;-89
2021/01/29 11:41:13;;;;;;;227.52;122.13;;;;;;;;;;5018673;28;20029;-88
2021/01/29 11:43:49;;;;;;;80.40;37.65;;;;;;;;;;5018943;28;20018;-88
2021/01/29 11:46:25;;;;;;;77.88;37.72;;;;;;;;;;5018660;28;20026;-89
2021/01/29 11:52:00;;;;;;;71.97;34.05;;;;;;;;;;5018844;28;20037;-88
2021/01/29 11:54:32;;;;;;;55.50;27.95;;;;;;;;;;5018619;28;20026;-89
2021/01/29 11:56:58;;;;;;;;;;;;;;;;;;5019082;28;20507;-91
2021/01/29 11:59:36;;;;;;;51.78;25.92;;;;;;;;;;5018437;28;19940;-85
2021/01/29 12:02:02;;;;;;;548.38;248.13;;;;;;;;;;5018394;28;20035;-88
2021/01/29 12:04:47;;;;;;;53.42;24.33;;;;;;;;;;5018656;28;20111;-89
2021/01/29 12:07:16;;;;;;;78.10;33.63;;;;;;;;;;5000566;28;20037;-89
2021/01/29 12:09:48;;;;;;;80.32;38.63;;;;;;;;;;5018461;28;20060;-89
2021/01/29 12:12:17;;;;;;;25.60;12.77;;;;;;;;;;5018508;28;20030;-88
2021/01/29 12:15:02;;;;;;;146.57;60.53;;;;;;;;;;5018403;28;20076;-88
2021/01/29 12:17:29;;;;;;;90.40;46.70;;;;;;;;;;5017898;28;20029;-90
2021/01/29 12:20:00;;;;;;;41.20;20.90;;;;;;;;;;5018422;28;20095;-89
2021/01/29 12:22:26;;;;;;;51.55;27.85;;;;;;;;;;5018162;28;20079;-88
2021/01/29 12:25:01;;;;;;;77.07;37.92;;;;;;;;;;5017953;28;20026;-88
2021/01/29 12:27:30;;;;;;;136.43;61.65;;;;;;;;;;5000427;28;20033;-88
2021/01/29 12:30:03;;;;;;;510.20;248.77;;;;;;;;;;5000142;28;20100;-88
2021/01/29 12:32:40;;;;;;;122.10;54.80;;;;;;;;;;5017999;28;20034;-88
2021/01/29 12:35:24;;;;;;;486.70;252.48;;;;;;;;;;5017859;28;20112;-88
2021/01/29 12:38:09;;;;;;;315.48;140.32;;;;;;;;;;5000675;28;20091;-88
2021/01/29 12:40:38;;;;;;;140.27;56.75;;;;;;;;;;5017918;28;20042;-88
2021/01/29 12:43:07;;;;;;;86.15;40.58;;;;;;;;;;5000556;28;20026;-87
2021/01/29 12:45:40;;;;;;;187.70;77.93;;;;;;;;;;5000592;28;20022;-88
2021/01/29 12:48:16;;;;;;;650.50;340.58;;;;;;;;;;4999933;28;20045;-90
2021/01/29 12:50:46;;;;;;;698.17;378.70;;;;;;;;;;5018131;28;20026;-88
2021/01/29 12:53:15;;;;;;;298.48;132.55;;;;;;;;;;5017923;28;20037;-89
2021/01/29 12:55:47;;;;;;;153.13;54.10;;;;;;;;;;5018026;28;20030;-90
2021/01/29 12:58:14;;;;;;;229.63;93.55;;;;;;;;;;5000386;28;20036;-90
2021/01/29 13:00:41;;;;;;;115.38;46.92;;;;;;;;;;5000606;28;20025;-90
2021/01/29 13:03:28;;;;;;;279.92;131.05;;;;;;;;;;5017672;28;20026;-89
2021/01/29 13:06:10;;;;;;;157.57;66.22;;;;;;;;;;5000073;28;20037;-90
2021/01/29 13:08:45;;;;;;;440.60;191.20;;;;;;;;;;5017875;28;20025;-90
2021/01/29 13:11:30;;;;;;;500.77;234.43;;;;;;;;;;5017492;28;20423;-90
2021/01/29 13:13:56;;;;;;;207.25;94.47;;;;;;;;;;4999761;28;20038;-90
2021/01/29 13:16:26;;;;;;;209.27;97.93;;;;;;;;;;5017791;28;20026;-89
2021/01/29 13:19:04;;;;;;;207.05;95.28;;;;;;;;;;5017120;28;20029;-89
2021/01/29 13:21:35;;;;;;;97.65;49.28;;;;;;;;;;5017664;28;20034;-89
2021/01/29 13:24:04;;;;;;;56.33;30.33;;;;;;;;;;5017426;28;20053;-89
2021/01/29 13:26:33;;;;;;;245.48;109.70;;;;;;;;;;5017820;28;20026;-89
2021/01/29 13:29:02;;;;;;;1265.72;174.13;;;;;;;;;;5002155;28;20064;-90
2021/01/29 13:31:33;;;;;;;378.63;131.48;;;;;;;;;;5003950;28;20340;-87
2021/01/29 13:34:13;;;;;;;390.50;151.10;;;;;;;;;;5021353;28;20026;-88
2021/01/29 13:36:39;;;;;;;736.47;391.20;;;;;;;;;;5021135;28;20029;-88
2021/01/29 13:39:08;;;;;;;663.97;358.00;;;;;;;;;;5003620;28;20108;-87
2021/01/29 13:41:54;;;;;;;621.53;350.67;;;;;;;;;;5021140;28;20036;-87
2021/01/29 13:44:32;;;;;;;490.08;269.90;;;;;;;;;;5020901;28;20102;-88
2021/01/29 13:46:58;;;;;;;531.67;284.27;;;;;;;;;;5021206;28;20030;-88
2021/01/29 13:55:33;;;;;;;1196.13;527.20;;;;;;;;;;5020883;28;20061;-87
2021/01/29 13:57:59;;;;;;;1035.00;440.45;;;;;;;;;;5020622;28;20026;-87
2021/01/29 14:00:27;;;;;;;997.15;405.58;;;;;;;;;;5020747;28;20018;-88
2021/01/29 14:03:02;;;;;;;1217.45;490.63;;;;;;;;;;5020437;28;20022;-87
2021/01/29 14:05:28;;;;;;;1060.85;434.05;;;;;;;;;;5003340;28;20068;-89
2021/01/29 14:07:57;;;;;;;956.58;393.75;;;;;;;;;;5020466;28;20470;-89
2021/01/29 14:10:28;;;;;;;1113.63;459.88;;;;;;;;;;5020781;28;20076;-90
2021/01/29 14:13:13;;;;;;;1158.78;497.70;;;;;;;;;;5020381;28;20025;-86
2021/01/29 14:15:46;;;;;;;746.70;311.40;;;;;;;;;;5002660;28;20064;-87
2021/01/29 14:18:31;;;;;;;735.75;317.40;;;;;;;;;;5020500;28;20022;-85
2021/01/29 14:21:01;;;;;;;582.53;247.80;;;;;;;;;;5020279;28;20072;-86
2021/01/29 14:23:35;;;;;;;565.17;239.45;;;;;;;;;;5020494;28;20022;-86
2021/01/29 14:26:28;;;;;;;675.10;300.27;;;;;;;;;;5020350;28;20030;-85
2021/01/29 14:29:00;;;;;;;860.92;385.17;;;;;;;;;;5015588;28;20068;-85
2021/01/29 14:31:26;;;;;;;670.67;287.35;;;;;;;;;;5019979;28;20152;-85
2021/01/29 14:39:52;;;;;;;984.50;405.58;;;;;;;;;;5018841;28;20044;-80
2021/01/29 14:42:18;;;;;;;;;;;;;;;;;;5020284;28;20069;-88
2021/01/29 14:44:56;;;;;;;1085.45;436.13;;;;;;;;;;5019740;28;19909;-88
2021/01/29 14:47:28;;;;;;;1293.70;531.10;;;;;;;;;;5020025;28;20084;-88
2021/01/29 14:49:54;;;;;;;;;;;;;;;;;;5020353;28;20022;-89
2021/01/29 14:52:24;;;;;;;554.55;233.90;;;;;;;;;;5019640;28;20379;-88
2021/01/29 14:54:56;;;;;;;560.03;238.35;;;;;;;;;;5002356;28;20080;-88
2021/01/29 14:57:30;;;;;;;726.42;317.23;;;;;;;;;;5002362;28;20022;-88
2021/01/29 14:59:58;;;;;;;614.40;275.95;;;;;;;;;;5019675;28;20057;-89
2021/01/29 15:02:47;;;;;;;830.05;391.38;;;;;;;;;;5001592;28;20097;-89
2021/01/29 15:05:15;;;;;;;757.72;361.85;;;;;;;;;;5002084;28;20033;-89
2021/01/29 15:07:46;;;;;;;649.60;313.63;;;;;;;;;;5019794;28;20046;-88
2021/01/29 15:10:12;;;;;;;587.88;283.55;;;;;;;;;;5019282;28;20116;-87
2021/01/29 15:12:43;;;;;;;746.22;371.98;;;;;;;;;;5019167;28;20408;-89
2021/01/29 15:15:21;;;;;;;520.88;255.27;;;;;;;;;;5019509;28;20046;-89
2021/01/29 15:17:50;;;;;;;510.13;248.80;;;;;;;;;;5001818;28;20030;-88
2021/01/29 15:23:19;;;;;;;409.27;197.50;;;;;;;;;;5019458;28;20021;-95
2021/01/29 15:26:00;;;;;;;360.77;174.20;;;;;;;;;;5019269;28;20080;-93
2021/01/29 15:28:29;;;;;;;358.38;175.98;;;;;;;;;;5019095;28;20038;-86
2021/01/29 15:31:00;;;;;;;424.98;206.32;;;;;;;;;;5001601;28;20080;-86
2021/01/29 15:33:29;;;;;;;483.60;231.02;;;;;;;;;;5018788;28;20072;-87
2021/01/29 15:36:14;;;;;;;510.88;248.43;;;;;;;;;;5018621;28;20073;-88
2021/01/29 15:38:43;;;;;;;498.90;236.45;;;;;;;;;;5018683;28;20030;-87
2021/01/29 15:41:28;;;;;;;415.45;211.90;;;;;;;;;;5018766;28;20050;-88
2021/01/29 15:43:56;;;;;;;469.20;239.00;;;;;;;;;;5001234;28;20057;-87
2021/01/29 15:46:41;;;;;;;469.38;243.80;;;;;;;;;;5001390;28;20033;-87
2021/01/29 15:49:09;;;;;;;391.58;213.70;;;;;;;;;;5000925;28;20065;-87